Cumberland Center, ME

11:54 AM EST on February 12, 2016 (GMT -0500)
Cumberland Center | | Change Station
CLOSE
Current Station
Personal Weather Station
Location: Cumberland, ME
Elevation: 167 ft
Nearby Weather Stations

Elev 167 ft 43.81 °N, 70.25 °W | Updated 16 seconds ago

Clear
Clear
15.4 °F
Feels Like 15 °F
N
2.0
Wind Variable Wind from SW
Gusts 5.0 mph

Today
High -- | Low -- °F
--% Chance of Precip.
Yesterday
High -- | Low -- °F
Precip. -- in
Pressure 30.10 in
Visibility 10.0 miles
Clouds Mostly Cloudy 25000 ft
Windchill 15 °F
Dew Point -1 °F
Humidity 47%
Rainfall 0.00 in
Snow Depth Not available.
6:44 AM 5:06 PM
Waxing Crescent, 22% visible
METAR KPWM 121651Z 00000KT 10SM BKN250 M10/M21 A3009 RMK AO2 SLP191 P0002 T11001211
Pressure 30.10 in
Visibility 10.0 miles
Clouds Mostly Cloudy 25000 ft
Windchill 15 °F
Dew Point -1 °F
Humidity 47%
Rainfall 0.00 in
Snow Depth Not available.
6:44 AM 5:06 PM
Waxing Crescent, 22% visible
METAR KPWM 121651Z 00000KT 10SM BKN250 M10/M21 A3009 RMK AO2 SLP191 P0002 T11001211

10-Day Weather Forecast

Almanac

Astronomy

Feb. 12, 2016 Rise Set
Actual Time
Civil Twilight
Nautical Twilight
Astronomical Twilight
Moon
Length of Visible Light
Length of Day
Tomorrow will be .
, % of the Moon is Illuminated

Today's Extremes

State Highs State Lows

Community

WunderPhotos

Upload Photos

1,892,354 photos uploaded!

WunderBlog® & News

Nearby

Air Quality

  Air Quality AQ Index Pollutant
Not available.

Snow Depth

Station Depth Elevation

Earthquake Activity

City Distance Mag. Time & Date
Minimum magnitude displayed is 2.5.

Coastal Water Temperatures

Place Temperature

Stations

Nearby Weather Stations

Station Location Temp. Windchill Dew Point Humidity Wind Precip. Elev Updated Type
                   

Watches & Warnings

There are currently no watches in effect.